Porto Di Livorno — IFPU2 — position and weather

sailwx.info

Track history (hours):
 
Tides and Currents Weather Stations Pressure Air Temp Water Temp Dewpoint Dewpoint Depression Visibility Wind Speed Wind Dir Waves Ship Positions

Porto Di Livorno

Last reported at 2016-May-26 21:33 UTC. Time now 2016-May-26 22:31 UTC.
Position N 43°34' E 010°18'.

Length 24 m; draft 6.1 m.

Type: Tug. MMSI: 247194299.

Date/timePositionNaut miles runAvg speedWind from/ knotsBaromVisibWave heightAir tempDewpointWater temp
2016-May-26 21:33N 43°34' E 010°18'0 0.0
2016-May-26 20:34N 43°34' E 010°18'0 0.0
2016-May-26 19:34N 43°34' E 010°18'0 0.0
2016-May-26 15:33N 43°34' E 010°18'0 0.0
2016-May-26 14:33N 43°34' E 010°18'1 1.0
2016-May-26 13:33N 43°33' E 010°17'2 2.1
2016-May-26 12:33N 43°35' E 010°18'1 1.1
2016-May-26 11:33N 43°34' E 010°18'0 0.0
2016-May-26 10:33N 43°34' E 010°18'0 0.0
2016-May-26 09:33N 43°34' E 010°18'1 0.7
2016-May-26 08:33N 43°34' E 010°19'1 0.7
2016-May-26 07:33N 43°34' E 010°18'0 0.0
2016-May-26 06:33N 43°34' E 010°18'0 0.0
2016-May-26 05:33N 43°34' E 010°18'0 0.4
2016-May-26 04:33N 43°33' E 010°18'0 0.4
2016-May-26 03:33N 43°34' E 010°18'0 0.0
2016-May-26 02:33N 43°34' E 010°18'0 0.0
2016-May-26 01:33N 43°34' E 010°18'0 0.0
2016-May-26 00:33N 43°34' E 010°18'0 0.0
2016-May-25 23:33N 43°34' E 010°18'0 0.0
2016-May-25 22:33N 43°34' E 010°18'0 0.0
2016-May-25 21:33N 43°34' E 010°18'0 0.0
2016-May-25 20:33N 43°34' E 010°18'0 0.0
2016-May-25 03:33N 43°34' E 010°18'0 0.0
2016-May-25 02:33N 43°34' E 010°18'0 0.0
2016-May-25 01:33N 43°34' E 010°18'0 0.0
2016-May-25 00:33N 43°34' E 010°18'0 0.0
2016-May-24 23:33N 43°34' E 010°18'0 0.0
2016-May-24 22:33N 43°34' E 010°18'0 0.0
2016-May-24 21:33N 43°34' E 010°18'0 0.0
2016-May-24 20:33N 43°34' E 010°18'0 0.0
2016-May-24 19:33N 43°34' E 010°18'0 0.0
2016-May-24 18:33N 43°34' E 010°18'0 0.0
2016-May-24 17:33N 43°34' E 010°18'1 0.7
2016-May-24 16:33N 43°34' E 010°19'1 0.0
2016-May-23 15:33N 43°34' E 010°18'1 0.7
2016-May-23 14:33N 43°33' E 010°18'1 0.7
2016-May-23 13:33N 43°34' E 010°18'0 0.0
2016-May-23 12:33N 43°34' E 010°18'0 0.0
2016-May-23 11:33N 43°34' E 010°18'0 0.0
2016-May-23 10:33N 43°34' E 010°18'0 0.0
2016-May-23 09:33N 43°34' E 010°18'0 0.4
2016-May-23 08:34N 43°33' E 010°18'0 0.4
2016-May-23 07:33N 43°34' E 010°18'1 1.4
2016-May-23 06:33N 43°32' E 010°17'2 2.3
2016-May-23 05:34N 43°34' E 010°19'2 2.3
2016-May-23 04:33N 43°32' E 010°17'1 0.1
2016-May-22 15:33N 43°34' E 010°18'0 0.0
2016-May-22 14:34N 43°34' E 010°18'1 0.6
2016-May-22 13:34N 43°34' E 010°18'1 0.6
2016-May-22 12:33N 43°34' E 010°18'0 0.0
2016-May-22 11:33N 43°34' E 010°18'0 0.0
2016-May-22 10:33N 43°34' E 010°18'1 0.8
2016-May-22 09:33N 43°34' E 010°18'2 2.1
2016-May-22 08:33N 43°32' E 010°17'1 1.1
2016-May-22 07:34N 43°34' E 010°18'0 0.4
2016-May-22 06:33N 43°34' E 010°18'0 0.2
2016-May-22 05:33N 43°34' E 010°18'0 0.0
2016-May-22 04:33N 43°34' E 010°18'1 0.0
2016-May-21 16:34N 43°34' E 010°18'1 0.8
2016-May-21 15:34N 43°34' E 010°18'0 0.3
2016-May-21 14:33N 43°34' E 010°18'0 0.4
2016-May-21 13:34N 43°33' E 010°18'1 1.3
2016-May-21 12:33N 43°35' E 010°18'3 3.4
2016-May-21 11:33N 43°32' E 010°16'3 3.0
2016-May-21 10:34N 43°34' E 010°18'1 0.6
2016-May-21 09:33N 43°34' E 010°18'0 0.0
2016-May-21 08:33N 43°34' E 010°18'0 0.0
2016-May-21 07:33N 43°34' E 010°18'0 0.0
2016-May-21 06:33N 43°34' E 010°18'1 0.6
2016-May-21 05:33N 43°34' E 010°18'1 1.5
2016-May-21 04:33N 43°33' E 010°17'0 0.2
2016-May-21 03:34N 43°33' E 010°17'1 1.1
2016-May-21 02:33N 43°34' E 010°18'0 0.0
2016-May-21 01:33N 43°34' E 010°18'0 0.0
2016-May-21 00:33N 43°34' E 010°18'0 0.0
2016-May-20 23:33N 43°34' E 010°18'0 0.0
2016-May-20 22:33N 43°34' E 010°18'0 0.0
2016-May-20 21:33N 43°34' E 010°18'1 1.4
2016-May-20 20:34N 43°32' E 010°17'2 2.2
2016-May-20 19:33N 43°34' E 010°18'1 1.0
2016-May-20 18:33N 43°34' E 010°18'0 0.2
2016-May-20 17:33N 43°33' E 010°18'2 2.2
2016-May-20 16:34N 43°32' E 010°16'2 0.1
2016-May-19 17:33N 43°33' E 010°17'1 0.8
2016-May-19 16:33N 43°34' E 010°18'0 0.2
2016-May-19 15:33N 43°34' E 010°18'0 0.2
2016-May-19 14:33N 43°34' E 010°18'0 0.0
2016-May-19 13:33N 43°34' E 010°18'0 0.0
2016-May-19 12:33N 43°34' E 010°18'1 1.3
2016-May-19 11:33N 43°35' E 010°19'1 1.0
2016-May-19 10:34N 43°34' E 010°18'0 0.3
2016-May-19 09:33N 43°34' E 010°18'1 0.8
2016-May-19 08:34N 43°34' E 010°18'1 0.7
2016-May-19 07:33N 43°34' E 010°18'1 0.6
2016-May-19 06:34N 43°34' E 010°18'1 1.1
2016-May-19 05:33N 43°33' E 010°18'1 0.5
2016-May-19 04:33N 43°34' E 010°18'1 1.0
2016-May-19 03:33N 43°33' E 010°17'1 1.0
2016-May-19 02:33N 43°34' E 010°18'0 0.0
2016-May-19 01:33N 43°34' E 010°18'0 0.0
2016-May-19 00:33N 43°34' E 010°18'1 0.6
2016-May-18 23:33N 43°33' E 010°18'1 0.6
2016-May-18 22:33N 43°34' E 010°18'0 0.0
2016-May-18 21:33N 43°34' E 010°18'0 0.0
2016-May-18 20:33N 43°34' E 010°18'0 0.0
2016-May-18 19:33N 43°34' E 010°18'0 0.0
2016-May-18 18:33N 43°34' E 010°18'1 1.2
2016-May-18 17:34N 43°35' E 010°19'1 1.2
2016-May-18 16:33N 43°34' E 010°18'0 0.0
2016-May-17 15:33N 43°34' E 010°18'0 0.0
2016-May-17 14:33N 43°34' E 010°18'1 1.0
2016-May-17 13:34N 43°35' E 010°18'1 0.5
2016-May-17 12:33N 43°34' E 010°18'0 0.3
2016-May-17 11:33N 43°34' E 010°18'0 0.3
2016-May-17 10:33N 43°34' E 010°18'0 0.0
2016-May-17 09:33N 43°34' E 010°18'0 0.0
2016-May-17 08:33N 43°34' E 010°18'0 0.0
2016-May-17 07:33N 43°34' E 010°18'0 0.4
2016-May-17 06:33N 43°34' E 010°18'2 1.6
2016-May-17 05:33N 43°35' E 010°19'1 0.9
2016-May-17 04:33N 43°34' E 010°18'0 0.4
2016-May-17 03:33N 43°34' E 010°18'0 0.0
2016-May-17 02:33N 43°34' E 010°18'0 0.0
2016-May-17 01:33N 43°34' E 010°18'0 0.0
2016-May-17 00:33N 43°34' E 010°18'0 0.0
2016-May-16 23:33N 43°34' E 010°18'0 0.0
2016-May-16 22:33N 43°34' E 010°18'  
Track history (hours):
 
Tides and Currents Weather Stations Pressure Air Temp Water Temp Dewpoint Dewpoint Depression Visibility Wind Speed Wind Dir Waves Ship Positions

Porto Di Livorno

Last reported at 2016-May-26 21:33 UTC. Time now 2016-May-26 22:31 UTC.
Position N 43°34' E 010°18'.

Length 24 m; draft 6.1 m.

Type: Tug. MMSI: 247194299.

Date/timePositionNaut miles runAvg speedWind from/ knotsBaromVisibWave heightAir tempDewpointWater temp
2016-May-26 21:33N 43°34' E 010°18'0 0.0
2016-May-26 20:34N 43°34' E 010°18'0 0.0
2016-May-26 19:34N 43°34' E 010°18'0 0.0
2016-May-26 15:33N 43°34' E 010°18'0 0.0
2016-May-26 14:33N 43°34' E 010°18'1 1.0
2016-May-26 13:33N 43°33' E 010°17'2 2.1
2016-May-26 12:33N 43°35' E 010°18'1 1.1
2016-May-26 11:33N 43°34' E 010°18'0 0.0
2016-May-26 10:33N 43°34' E 010°18'0 0.0
2016-May-26 09:33N 43°34' E 010°18'1 0.7
2016-May-26 08:33N 43°34' E 010°19'1 0.7
2016-May-26 07:33N 43°34' E 010°18'0 0.0
2016-May-26 06:33N 43°34' E 010°18'0 0.0
2016-May-26 05:33N 43°34' E 010°18'0 0.4
2016-May-26 04:33N 43°33' E 010°18'0 0.4
2016-May-26 03:33N 43°34' E 010°18'0 0.0
2016-May-26 02:33N 43°34' E 010°18'0 0.0
2016-May-26 01:33N 43°34' E 010°18'0 0.0
2016-May-26 00:33N 43°34' E 010°18'0 0.0
2016-May-25 23:33N 43°34' E 010°18'0 0.0
2016-May-25 22:33N 43°34' E 010°18'0 0.0
2016-May-25 21:33N 43°34' E 010°18'0 0.0
2016-May-25 20:33N 43°34' E 010°18'0 0.0
2016-May-25 03:33N 43°34' E 010°18'0 0.0
2016-May-25 02:33N 43°34' E 010°18'0 0.0
2016-May-25 01:33N 43°34' E 010°18'0 0.0
2016-May-25 00:33N 43°34' E 010°18'0 0.0
2016-May-24 23:33N 43°34' E 010°18'0 0.0
2016-May-24 22:33N 43°34' E 010°18'0 0.0
2016-May-24 21:33N 43°34' E 010°18'0 0.0
2016-May-24 20:33N 43°34' E 010°18'0 0.0
2016-May-24 19:33N 43°34' E 010°18'0 0.0
2016-May-24 18:33N 43°34' E 010°18'0 0.0
2016-May-24 17:33N 43°34' E 010°18'1 0.7
2016-May-24 16:33N 43°34' E 010°19'1 0.0
2016-May-23 15:33N 43°34' E 010°18'1 0.7
2016-May-23 14:33N 43°33' E 010°18'1 0.7
2016-May-23 13:33N 43°34' E 010°18'0 0.0
2016-May-23 12:33N 43°34' E 010°18'0 0.0
2016-May-23 11:33N 43°34' E 010°18'0 0.0
2016-May-23 10:33N 43°34' E 010°18'0 0.0
2016-May-23 09:33N 43°34' E 010°18'0 0.4
2016-May-23 08:34N 43°33' E 010°18'0 0.4
2016-May-23 07:33N 43°34' E 010°18'1 1.4
2016-May-23 06:33N 43°32' E 010°17'2 2.3
2016-May-23 05:34N 43°34' E 010°19'2 2.3
2016-May-23 04:33N 43°32' E 010°17'1 0.1
2016-May-22 15:33N 43°34' E 010°18'0 0.0
2016-May-22 14:34N 43°34' E 010°18'1 0.6
2016-May-22 13:34N 43°34' E 010°18'1 0.6
2016-May-22 12:33N 43°34' E 010°18'0 0.0
2016-May-22 11:33N 43°34' E 010°18'0 0.0
2016-May-22 10:33N 43°34' E 010°18'1 0.8
2016-May-22 09:33N 43°34' E 010°18'2 2.1
2016-May-22 08:33N 43°32' E 010°17'1 1.1
2016-May-22 07:34N 43°34' E 010°18'0 0.4
2016-May-22 06:33N 43°34' E 010°18'0 0.2
2016-May-22 05:33N 43°34' E 010°18'0 0.0
2016-May-22 04:33N 43°34' E 010°18'1 0.0
2016-May-21 16:34N 43°34' E 010°18'1 0.8
2016-May-21 15:34N 43°34' E 010°18'0 0.3
2016-May-21 14:33N 43°34' E 010°18'0 0.4
2016-May-21 13:34N 43°33' E 010°18'1 1.3
2016-May-21 12:33N 43°35' E 010°18'3 3.4
2016-May-21 11:33N 43°32' E 010°16'3 3.0
2016-May-21 10:34N 43°34' E 010°18'1 0.6
2016-May-21 09:33N 43°34' E 010°18'0 0.0
2016-May-21 08:33N 43°34' E 010°18'0 0.0
2016-May-21 07:33N 43°34' E 010°18'0 0.0
2016-May-21 06:33N 43°34' E 010°18'1 0.6
2016-May-21 05:33N 43°34' E 010°18'1 1.5
2016-May-21 04:33N 43°33' E 010°17'0 0.2
2016-May-21 03:34N 43°33' E 010°17'1 1.1
2016-May-21 02:33N 43°34' E 010°18'0 0.0
2016-May-21 01:33N 43°34' E 010°18'0 0.0
2016-May-21 00:33N 43°34' E 010°18'0 0.0
2016-May-20 23:33N 43°34' E 010°18'0 0.0
2016-May-20 22:33N 43°34' E 010°18'0 0.0
2016-May-20 21:33N 43°34' E 010°18'1 1.4
2016-May-20 20:34N 43°32' E 010°17'2 2.2
2016-May-20 19:33N 43°34' E 010°18'1 1.0
2016-May-20 18:33N 43°34' E 010°18'0 0.2
2016-May-20 17:33N 43°33' E 010°18'2 2.2
2016-May-20 16:34N 43°32' E 010°16'2 0.1
2016-May-19 17:33N 43°33' E 010°17'1 0.8
2016-May-19 16:33N 43°34' E 010°18'0 0.2
2016-May-19 15:33N 43°34' E 010°18'0 0.2
2016-May-19 14:33N 43°34' E 010°18'0 0.0
2016-May-19 13:33N 43°34' E 010°18'0 0.0
2016-May-19 12:33N 43°34' E 010°18'1 1.3
2016-May-19 11:33N 43°35' E 010°19'1 1.0
2016-May-19 10:34N 43°34' E 010°18'0 0.3
2016-May-19 09:33N 43°34' E 010°18'1 0.8
2016-May-19 08:34N 43°34' E 010°18'1 0.7
2016-May-19 07:33N 43°34' E 010°18'1 0.6
2016-May-19 06:34N 43°34' E 010°18'1 1.1
2016-May-19 05:33N 43°33' E 010°18'1 0.5
2016-May-19 04:33N 43°34' E 010°18'1 1.0
2016-May-19 03:33N 43°33' E 010°17'1 1.0
2016-May-19 02:33N 43°34' E 010°18'0 0.0
2016-May-19 01:33N 43°34' E 010°18'0 0.0
2016-May-19 00:33N 43°34' E 010°18'1 0.6
2016-May-18 23:33N 43°33' E 010°18'1 0.6
2016-May-18 22:33N 43°34' E 010°18'0 0.0
2016-May-18 21:33N 43°34' E 010°18'0 0.0
2016-May-18 20:33N 43°34' E 010°18'0 0.0
2016-May-18 19:33N 43°34' E 010°18'0 0.0
2016-May-18 18:33N 43°34' E 010°18'1 1.2
2016-May-18 17:34N 43°35' E 010°19'1 1.2
2016-May-18 16:33N 43°34' E 010°18'0 0.0
2016-May-17 15:33N 43°34' E 010°18'0 0.0
2016-May-17 14:33N 43°34' E 010°18'1 1.0
2016-May-17 13:34N 43°35' E 010°18'1 0.5
2016-May-17 12:33N 43°34' E 010°18'0 0.3
2016-May-17 11:33N 43°34' E 010°18'0 0.3
2016-May-17 10:33N 43°34' E 010°18'0 0.0
2016-May-17 09:33N 43°34' E 010°18'0 0.0
2016-May-17 08:33N 43°34' E 010°18'0 0.0
2016-May-17 07:33N 43°34' E 010°18'0 0.4
2016-May-17 06:33N 43°34' E 010°18'2 1.6
2016-May-17 05:33N 43°35' E 010°19'1 0.9
2016-May-17 04:33N 43°34' E 010°18'0 0.4
2016-May-17 03:33N 43°34' E 010°18'0 0.0
2016-May-17 02:33N 43°34' E 010°18'0 0.0
2016-May-17 01:33N 43°34' E 010°18'0 0.0
2016-May-17 00:33N 43°34' E 010°18'0 0.0
2016-May-16 23:33N 43°34' E 010°18'0 0.0
2016-May-16 22:33N 43°34' E 010°18'  

Dump ship's entire track history